METAR Data
IDs: Format: Raw Decoded Include TAF

Data at: 1322 UTC 26 Feb 2021

LOWS 261250Z 34005KT CAVOK 17/02 Q1028 NOSIG